createdAt,value
2022-08-17T00:00:18.266Z,17.70
2022-08-17T00:00:51.833Z,13.80
2022-08-17T00:01:24.149Z,13.20
2022-08-17T00:01:57.815Z,16.80
2022-08-17T00:02:38.327Z,18.50
2022-08-17T00:03:08.455Z,19.10
2022-08-17T00:03:43.696Z,20.90
2022-08-17T00:04:19.084Z,16.50
2022-08-17T00:04:54.605Z,17.40
2022-08-17T00:05:30.097Z,18.20
2022-08-17T00:06:05.180Z,17.90
2022-08-17T00:06:40.560Z,19.40
2022-08-17T00:07:15.813Z,19.30
2022-08-17T00:07:51.081Z,20.20
2022-08-17T00:08:26.326Z,20.80
2022-08-17T00:09:02.135Z,19.70
2022-08-17T00:09:37.434Z,17.50
2022-08-17T00:10:12.674Z,16.40
2022-08-17T00:10:48.065Z,18.90
2022-08-17T00:11:23.419Z,20.30
2022-08-17T00:12:41.204Z,15.90
2022-08-17T00:12:42.317Z,17.30
2022-08-17T00:13:09.498Z,15.90
2022-08-17T00:13:44.731Z,17.00
2022-08-17T00:14:20.169Z,20.40
2022-08-17T00:14:55.514Z,21.00
2022-08-17T00:15:31.034Z,14.70
2022-08-17T00:16:06.249Z,15.20
2022-08-17T00:16:57.094Z,15.30
2022-08-17T00:17:16.888Z,19.10
2022-08-17T00:17:52.091Z,18.50
2022-08-17T00:19:01.685Z,14.80
2022-08-17T00:19:08.249Z,21.00
2022-08-17T00:19:37.783Z,22.10
2022-08-17T00:20:12.814Z,16.80
2022-08-17T00:20:47.900Z,17.20
2022-08-17T00:21:23.823Z,19.90
2022-08-17T00:22:31.261Z,20.90
2022-08-17T00:22:46.625Z,18.30
2022-08-17T00:23:09.048Z,19.60
2022-08-17T00:23:47.801Z,18.70
2022-08-17T00:24:19.111Z,19.70
2022-08-17T00:24:54.396Z,22.90
2022-08-17T00:25:29.606Z,21.60
2022-08-17T00:26:05.018Z,21.90
2022-08-17T00:26:44.982Z,19.50
2022-08-17T00:27:15.887Z,19.90
2022-08-17T00:27:51.317Z,18.10
2022-08-17T00:28:26.424Z,22.70
2022-08-17T00:29:01.565Z,21.90
2022-08-17T00:29:36.778Z,26.10
2022-08-17T00:30:11.861Z,24.10
2022-08-17T00:30:52.811Z,18.50
2022-08-17T00:31:22.682Z,23.20
2022-08-17T00:31:58.289Z,22.50
2022-08-17T00:33:11.614Z,16.00
2022-08-17T00:33:12.571Z,16.80
2022-08-17T00:33:44.243Z,19.50
2022-08-17T00:34:19.376Z,19.10
2022-08-17T00:34:54.719Z,17.20
2022-08-17T00:35:29.807Z,15.90
2022-08-17T00:36:05.229Z,15.90
2022-08-17T00:36:40.353Z,15.50
2022-08-17T00:37:15.564Z,17.90
2022-08-17T00:37:50.854Z,18.70
2022-08-17T00:38:25.991Z,18.90
2022-08-17T00:39:01.272Z,20.20
2022-08-17T00:39:36.932Z,18.60
2022-08-17T00:40:12.167Z,17.30
2022-08-17T00:40:47.321Z,19.90
2022-08-17T00:41:22.437Z,21.70
2022-08-17T00:41:57.642Z,17.70
2022-08-17T00:42:32.789Z,20.20
2022-08-17T00:43:08.210Z,22.50
2022-08-17T00:43:43.243Z,20.20
2022-08-17T00:44:18.412Z,19.10
2022-08-17T00:44:53.546Z,19.90
2022-08-17T00:45:28.573Z,21.20
2022-08-17T00:46:03.882Z,18.20
2022-08-17T00:46:39.119Z,18.40
2022-08-17T00:47:14.758Z,19.50
2022-08-17T00:47:50.242Z,20.00
2022-08-17T00:48:29.371Z,21.20
2022-08-17T00:49:00.576Z,24.50
2022-08-17T00:49:35.951Z,22.80
2022-08-17T00:50:11.688Z,21.20
2022-08-17T00:50:46.950Z,20.80
2022-08-17T00:51:22.181Z,19.00
2022-08-17T00:51:57.493Z,20.50
2022-08-17T00:52:32.694Z,22.40
2022-08-17T00:53:07.896Z,22.90
2022-08-17T00:53:42.894Z,20.70
2022-08-17T00:54:17.913Z,24.20
2022-08-17T00:54:53.032Z,25.80
2022-08-17T00:55:28.200Z,23.00
2022-08-17T00:56:03.393Z,19.50
2022-08-17T00:56:38.636Z,20.30
2022-08-17T00:57:13.975Z,20.40
2022-08-17T00:57:51.255Z,22.40
2022-08-17T00:58:35.911Z,21.30
2022-08-17T00:58:59.792Z,22.10
2022-08-17T00:59:35.093Z,20.20
2022-08-17T01:00:10.593Z,22.40
2022-08-17T01:00:46.004Z,22.90
2022-08-17T01:01:21.853Z,24.40
2022-08-17T01:01:56.579Z,22.40
2022-08-17T01:02:40.445Z,22.40
2022-08-17T01:03:07.321Z,19.10
2022-08-17T01:03:42.598Z,22.40
2022-08-17T01:04:18.319Z,24.40
2022-08-17T01:04:53.754Z,25.00
2022-08-17T01:05:28.890Z,24.10
2022-08-17T01:06:04.117Z,24.70
2022-08-17T01:06:39.330Z,22.30
2022-08-17T01:07:14.692Z,22.80
2022-08-17T01:07:50.066Z,21.40
2022-08-17T01:08:25.076Z,21.10
2022-08-17T01:09:00.482Z,21.70
2022-08-17T01:09:35.947Z,22.90
2022-08-17T01:10:57.203Z,23.70
2022-08-17T01:10:58.481Z,23.30
2022-08-17T01:11:21.686Z,21.30
2022-08-17T01:11:57.094Z,21.70
2022-08-17T01:12:32.205Z,31.30
2022-08-17T01:13:07.335Z,30.40
2022-08-17T01:13:42.543Z,24.80
2022-08-17T01:14:17.940Z,27.20
2022-08-17T01:14:53.591Z,28.30
2022-08-17T01:15:28.842Z,30.90
2022-08-17T01:16:04.040Z,26.20
2022-08-17T01:16:39.126Z,25.90
2022-08-17T01:17:14.305Z,26.70
2022-08-17T01:17:49.289Z,24.00
2022-08-17T01:18:24.706Z,23.40
2022-08-17T01:18:59.811Z,25.00
2022-08-17T01:19:35.180Z,25.10
2022-08-17T01:20:10.479Z,23.40
2022-08-17T01:20:47.817Z,22.50
2022-08-17T01:21:20.984Z,21.40
2022-08-17T01:21:56.377Z,24.10
2022-08-17T01:22:31.977Z,24.40
2022-08-17T01:23:07.265Z,23.70
2022-08-17T01:23:42.702Z,24.20
2022-08-17T01:24:17.829Z,26.10
2022-08-17T01:24:53.185Z,27.20
2022-08-17T01:25:28.495Z,29.90
2022-08-17T01:26:03.814Z,27.70
2022-08-17T01:26:38.951Z,23.80
2022-08-17T01:27:14.286Z,24.60
2022-08-17T01:27:49.690Z,26.40
2022-08-17T01:28:52.510Z,24.50
2022-08-17T01:29:00.282Z,23.40
2022-08-17T01:29:35.808Z,20.90
2022-08-17T01:30:58.274Z,27.00
2022-08-17T01:30:58.419Z,23.80
2022-08-17T01:31:21.494Z,24.30
2022-08-17T01:31:57.130Z,24.60
2022-08-17T01:32:32.264Z,26.40
2022-08-17T01:33:07.351Z,26.20
2022-08-17T01:33:42.387Z,27.80
2022-08-17T01:34:17.412Z,27.80
2022-08-17T01:34:52.596Z,21.60
2022-08-17T01:35:27.700Z,23.20
2022-08-17T01:36:03.094Z,23.20
2022-08-17T01:36:38.596Z,32.50
2022-08-17T01:37:13.940Z,25.70
2022-08-17T01:37:49.089Z,19.70
2022-08-17T01:38:27.117Z,21.90
2022-08-17T01:38:59.471Z,21.30
2022-08-17T01:39:34.833Z,25.20
2022-08-17T01:40:09.975Z,22.70
2022-08-17T01:40:45.273Z,28.50
2022-08-17T01:41:20.686Z,28.60
2022-08-17T01:41:55.712Z,25.30
2022-08-17T01:42:30.913Z,27.70
2022-08-17T01:43:06.121Z,26.90
2022-08-17T01:43:41.454Z,21.80
2022-08-17T01:44:16.579Z,20.60
2022-08-17T01:44:52.044Z,23.90
2022-08-17T01:45:27.475Z,22.00
2022-08-17T01:46:03.874Z,21.70
2022-08-17T01:46:37.988Z,22.50
2022-08-17T01:47:13.163Z,22.60
2022-08-17T01:47:48.442Z,21.20
2022-08-17T01:48:23.914Z,22.80
2022-08-17T01:48:59.016Z,23.10
2022-08-17T01:49:34.328Z,28.30
2022-08-17T01:50:09.425Z,26.50
2022-08-17T01:50:44.924Z,22.90
2022-08-17T01:51:20.375Z,24.30
2022-08-17T01:51:55.896Z,22.80
2022-08-17T01:52:34.092Z,23.60
2022-08-17T01:53:09.305Z,21.60
2022-08-17T01:53:44.436Z,23.50
2022-08-17T01:54:19.583Z,25.40
2022-08-17T01:54:54.913Z,23.20
2022-08-17T01:55:30.351Z,24.60
2022-08-17T01:56:05.704Z,24.90
2022-08-17T01:56:41.144Z,24.50
2022-08-17T01:57:16.552Z,24.10
2022-08-17T01:57:51.706Z,21.90
2022-08-17T01:58:26.932Z,19.90
2022-08-17T01:59:02.268Z,24.30
2022-08-17T01:59:37.488Z,24.00
2022-08-17T02:00:12.812Z,21.60
2022-08-17T02:01:00.777Z,22.10
2022-08-17T02:01:23.764Z,20.40
2022-08-17T02:01:59.235Z,19.90
2022-08-17T02:02:34.659Z,22.10
2022-08-17T02:03:10.154Z,26.10
2022-08-17T02:03:53.359Z,27.00
2022-08-17T02:04:20.385Z,23.50
2022-08-17T02:04:55.523Z,26.00
2022-08-17T02:05:31.180Z,24.40
2022-08-17T02:06:06.559Z,27.00
2022-08-17T02:06:45.384Z,25.00
2022-08-17T02:07:17.543Z,21.40
2022-08-17T02:08:00.293Z,24.10
2022-08-17T02:08:36.892Z,24.90
2022-08-17T02:09:03.789Z,25.50
2022-08-17T02:09:38.208Z,26.50
2022-08-17T02:10:18.269Z,21.90
2022-08-17T02:10:48.622Z,26.60
2022-08-17T02:11:24.145Z,27.80
2022-08-17T02:11:59.495Z,27.80
2022-08-17T02:12:37.657Z,29.40
2022-08-17T02:13:10.244Z,25.10
2022-08-17T02:13:45.750Z,25.20
2022-08-17T02:14:20.908Z,23.10
2022-08-17T02:14:56.081Z,20.20
2022-08-17T02:15:31.403Z,23.10
2022-08-17T02:16:06.712Z,27.20
2022-08-17T02:16:42.140Z,25.70
2022-08-17T02:17:17.646Z,26.00
2022-08-17T02:17:54.690Z,22.50
2022-08-17T02:18:28.428Z,25.20
2022-08-17T02:19:03.725Z,25.30
2022-08-17T02:19:39.340Z,22.40
2022-08-17T02:20:14.693Z,21.80
2022-08-17T02:20:50.118Z,25.40
2022-08-17T02:21:25.235Z,26.30
2022-08-17T02:22:00.468Z,21.20
2022-08-17T02:22:36.112Z,22.40
2022-08-17T02:23:11.850Z,25.40
2022-08-17T02:23:47.138Z,27.20
2022-08-17T02:24:58.322Z,24.40
2022-08-17T02:25:00.251Z,23.60
2022-08-17T02:25:32.618Z,21.20
2022-08-17T02:26:07.839Z,21.90
2022-08-17T02:26:43.105Z,22.90
2022-08-17T02:27:18.641Z,23.20
2022-08-17T02:27:54.250Z,25.60
2022-08-17T02:28:29.497Z,23.60
2022-08-17T02:29:04.711Z,21.50
2022-08-17T02:29:39.837Z,20.90
2022-08-17T02:31:00.718Z,30.00
2022-08-17T02:31:02.293Z,22.60
2022-08-17T02:31:25.822Z,31.90
2022-08-17T02:32:01.066Z,22.00
2022-08-17T02:32:36.095Z,23.70
2022-08-17T02:33:11.331Z,22.10
2022-08-17T02:33:46.766Z,24.80
2022-08-17T02:34:22.323Z,23.10
2022-08-17T02:34:57.674Z,23.20
2022-08-17T02:35:33.120Z,22.50
2022-08-17T02:36:08.457Z,26.50
2022-08-17T02:36:43.775Z,28.50
2022-08-17T02:37:19.385Z,24.60
2022-08-17T02:37:55.456Z,27.70
2022-08-17T02:38:29.841Z,27.40
2022-08-17T02:39:05.084Z,25.50
2022-08-17T02:39:40.579Z,27.40
2022-08-17T02:40:15.920Z,28.00
2022-08-17T02:40:50.927Z,26.70
2022-08-17T02:41:26.578Z,26.90
2022-08-17T02:42:01.871Z,29.30
2022-08-17T02:42:37.339Z,26.20
2022-08-17T02:43:12.374Z,31.10
2022-08-17T02:43:47.713Z,24.30
2022-08-17T02:44:38.942Z,24.30
2022-08-17T02:44:59.151Z,32.80
2022-08-17T02:45:34.052Z,30.90
2022-08-17T02:46:09.592Z,24.60
2022-08-17T02:46:44.723Z,24.20
2022-08-17T02:47:19.907Z,23.00
2022-08-17T02:47:55.666Z,22.50
2022-08-17T02:48:31.799Z,27.60
2022-08-17T02:49:06.421Z,33.40
2022-08-17T02:49:43.287Z,29.10
2022-08-17T02:50:16.745Z,27.60
2022-08-17T02:50:51.796Z,28.20
2022-08-17T02:51:27.026Z,25.30
2022-08-17T02:52:02.258Z,22.80
2022-08-17T02:52:55.224Z,22.30
2022-08-17T02:53:12.968Z,21.40
2022-08-17T02:53:48.296Z,22.30
2022-08-17T02:54:39.825Z,21.80
2022-08-17T02:54:58.892Z,23.50
2022-08-17T02:55:34.460Z,26.80
2022-08-17T02:56:09.701Z,25.20
2022-08-17T02:56:45.421Z,25.90
2022-08-17T02:57:20.471Z,27.80
2022-08-17T02:57:55.390Z,26.10
2022-08-17T02:58:34.549Z,26.90
2022-08-17T02:59:06.142Z,25.40
2022-08-17T02:59:43.309Z,28.00
2022-08-17T03:00:16.759Z,25.60
2022-08-17T03:00:52.008Z,23.10
2022-08-17T03:01:27.488Z,24.70
2022-08-17T03:02:02.900Z,24.80
2022-08-17T03:02:38.094Z,27.20
2022-08-17T03:03:13.656Z,25.80
2022-08-17T03:03:49.112Z,24.10
2022-08-17T03:04:24.322Z,24.20
2022-08-17T03:04:59.484Z,25.90
2022-08-17T03:05:34.704Z,25.80
2022-08-17T03:06:09.937Z,24.80
2022-08-17T03:06:45.268Z,24.80
2022-08-17T03:07:20.616Z,22.80
2022-08-17T03:07:55.958Z,23.10
2022-08-17T03:08:31.489Z,23.50
2022-08-17T03:09:06.723Z,25.30
2022-08-17T03:09:42.043Z,27.20
2022-08-17T03:10:17.457Z,24.90
2022-08-17T03:10:52.948Z,24.80
2022-08-17T03:11:28.414Z,30.00
2022-08-17T03:12:03.614Z,29.70
2022-08-17T03:12:38.903Z,27.90
2022-08-17T03:13:14.361Z,29.00
2022-08-17T03:13:49.878Z,26.00
2022-08-17T03:14:26.008Z,27.40
2022-08-17T03:15:00.624Z,27.50
2022-08-17T03:15:36.071Z,23.80
2022-08-17T03:16:11.593Z,25.00
2022-08-17T03:16:47.023Z,22.10
2022-08-17T03:17:22.077Z,23.80
2022-08-17T03:17:57.336Z,26.10
2022-08-17T03:18:32.760Z,30.20
2022-08-17T03:19:07.994Z,28.10
2022-08-17T03:19:43.451Z,23.70
2022-08-17T03:20:18.517Z,24.60
2022-08-17T03:20:53.745Z,30.00
2022-08-17T03:21:29.260Z,27.60
2022-08-17T03:22:35.500Z,27.90
2022-08-17T03:22:39.920Z,25.30
2022-08-17T03:23:15.177Z,29.20
2022-08-17T03:23:54.411Z,30.40
2022-08-17T03:24:28.027Z,29.30
2022-08-17T03:25:00.959Z,30.10
2022-08-17T03:25:36.165Z,28.90
2022-08-17T03:26:15.421Z,31.00
2022-08-17T03:26:46.726Z,30.50
2022-08-17T03:27:22.038Z,26.90
2022-08-17T03:27:57.360Z,25.70
2022-08-17T03:28:32.592Z,27.30
2022-08-17T03:29:08.146Z,26.00
2022-08-17T03:29:43.462Z,26.80
2022-08-17T03:30:19.115Z,28.10
2022-08-17T03:30:54.641Z,28.70
2022-08-17T03:31:30.182Z,26.80
2022-08-17T03:32:05.415Z,30.60
2022-08-17T03:32:40.500Z,30.40
2022-08-17T03:33:15.845Z,26.70
2022-08-17T03:33:51.042Z,30.60
2022-08-17T03:34:26.454Z,31.60
2022-08-17T03:35:01.760Z,27.40
2022-08-17T03:35:37.008Z,29.20
2022-08-17T03:36:12.687Z,33.20
2022-08-17T03:36:48.187Z,33.50
2022-08-17T03:37:23.315Z,28.60
2022-08-17T03:38:00.504Z,29.80
2022-08-17T03:38:39.025Z,28.80
2022-08-17T03:39:09.407Z,24.40
2022-08-17T03:39:44.555Z,27.30
2022-08-17T03:40:55.038Z,31.90
2022-08-17T03:40:59.385Z,31.70
2022-08-17T03:41:30.328Z,28.90
2022-08-17T03:42:05.836Z,25.80
2022-08-17T03:42:40.858Z,30.60
2022-08-17T03:43:16.015Z,28.20
2022-08-17T03:43:51.151Z,30.10
2022-08-17T03:44:26.387Z,31.20
2022-08-17T03:45:01.538Z,29.70
2022-08-17T03:45:37.383Z,29.70
2022-08-17T03:46:34.778Z,28.90
2022-08-17T03:46:47.870Z,29.60
2022-08-17T03:47:23.340Z,28.50
2022-08-17T03:47:58.511Z,33.10
2022-08-17T03:48:33.659Z,28.90
2022-08-17T03:49:08.598Z,31.80
2022-08-17T03:49:44.171Z,26.20
2022-08-17T03:50:19.530Z,26.40
2022-08-17T03:50:54.852Z,27.90
2022-08-17T03:51:30.288Z,27.30
2022-08-17T03:52:05.460Z,26.70
2022-08-17T03:52:40.694Z,25.70
2022-08-17T03:53:15.945Z,22.10
2022-08-17T03:53:51.036Z,22.80
2022-08-17T03:54:26.248Z,25.40
2022-08-17T03:55:01.364Z,31.30
2022-08-17T03:55:36.589Z,28.50
2022-08-17T03:56:11.933Z,25.60
2022-08-17T03:56:47.201Z,27.00
2022-08-17T03:57:22.565Z,27.60
2022-08-17T03:57:57.771Z,25.80
2022-08-17T03:58:32.837Z,24.80
2022-08-17T03:59:07.946Z,28.60
2022-08-17T03:59:43.122Z,31.80
2022-08-17T04:00:18.462Z,35.80
2022-08-17T04:00:53.979Z,31.40
2022-08-17T04:01:29.259Z,27.20
2022-08-17T04:02:04.613Z,26.30
2022-08-17T04:02:40.463Z,25.80
2022-08-17T04:03:15.513Z,26.50
2022-08-17T04:03:50.821Z,24.20
2022-08-17T04:04:27.963Z,27.90
2022-08-17T04:05:01.465Z,30.40
2022-08-17T04:05:37.051Z,28.90
2022-08-17T04:06:12.183Z,29.60
2022-08-17T04:06:48.559Z,30.80
2022-08-17T04:07:23.998Z,34.10
2022-08-17T04:07:59.548Z,29.50
2022-08-17T04:08:34.902Z,28.40
2022-08-17T04:09:10.278Z,27.80
2022-08-17T04:09:45.519Z,30.00
2022-08-17T04:10:23.653Z,31.80
2022-08-17T04:10:56.236Z,28.20
2022-08-17T04:11:31.468Z,30.50
2022-08-17T04:12:06.969Z,29.60
2022-08-17T04:12:42.235Z,29.50
2022-08-17T04:13:24.239Z,30.00
2022-08-17T04:13:52.888Z,29.70
2022-08-17T04:14:28.216Z,32.30
2022-08-17T04:15:10.360Z,30.60
2022-08-17T04:15:47.406Z,29.20
2022-08-17T04:16:22.535Z,30.70
2022-08-17T04:16:57.809Z,28.40
2022-08-17T04:17:33.047Z,29.30
2022-08-17T04:18:10.895Z,25.90
2022-08-17T04:18:44.097Z,32.50
2022-08-17T04:19:19.724Z,31.10
2022-08-17T04:19:55.149Z,31.60
2022-08-17T04:20:30.584Z,29.20
2022-08-17T04:21:06.206Z,27.10
2022-08-17T04:21:41.359Z,29.10
2022-08-17T04:22:30.894Z,25.50
2022-08-17T04:22:51.495Z,28.30
2022-08-17T04:23:26.481Z,26.00
2022-08-17T04:24:01.580Z,26.70
2022-08-17T04:24:36.891Z,30.40
2022-08-17T04:25:12.103Z,28.80
2022-08-17T04:25:47.450Z,27.80
2022-08-17T04:26:52.981Z,27.60
2022-08-17T04:26:57.877Z,27.40
2022-08-17T04:27:32.997Z,26.00
2022-08-17T04:28:15.803Z,28.00
2022-08-17T04:28:43.250Z,27.30
2022-08-17T04:29:18.487Z,28.00
2022-08-17T04:29:54.729Z,28.20
2022-08-17T04:30:28.933Z,31.90
2022-08-17T04:31:04.245Z,30.50
2022-08-17T04:31:39.650Z,23.80
2022-08-17T04:32:14.975Z,27.30
2022-08-17T04:33:00.440Z,27.00
2022-08-17T04:33:25.689Z,24.80
2022-08-17T04:34:00.780Z,26.20
2022-08-17T04:34:36.121Z,28.80
2022-08-17T04:35:11.592Z,24.30
2022-08-17T04:35:46.712Z,25.30
2022-08-17T04:36:22.243Z,28.60
2022-08-17T04:36:57.854Z,29.00
2022-08-17T04:37:33.019Z,28.80
2022-08-17T04:38:08.330Z,26.60
2022-08-17T04:38:43.470Z,28.10
2022-08-17T04:39:18.899Z,30.10
2022-08-17T04:39:54.803Z,29.30
2022-08-17T04:40:29.938Z,27.40
2022-08-17T04:41:04.952Z,25.80
2022-08-17T04:41:40.551Z,24.70
2022-08-17T04:42:15.667Z,27.50
2022-08-17T04:42:51.043Z,28.10
2022-08-17T04:43:26.691Z,26.60
2022-08-17T04:44:01.797Z,25.30
2022-08-17T04:44:38.122Z,24.70
2022-08-17T04:45:12.345Z,23.90
2022-08-17T04:45:55.013Z,25.20
2022-08-17T04:46:23.012Z,26.30
2022-08-17T04:46:58.318Z,30.40
2022-08-17T04:47:33.520Z,25.40
2022-08-17T04:48:08.636Z,25.80
2022-08-17T04:48:43.984Z,25.60
2022-08-17T04:49:19.237Z,25.40
2022-08-17T04:49:54.641Z,25.60
2022-08-17T04:50:29.646Z,25.20
2022-08-17T04:51:04.789Z,25.80
2022-08-17T04:51:39.885Z,25.50
2022-08-17T04:52:29.823Z,22.10
2022-08-17T04:52:50.491Z,23.30
2022-08-17T04:53:25.726Z,26.40
2022-08-17T04:54:00.954Z,26.20
2022-08-17T04:54:36.275Z,23.70
2022-08-17T04:55:11.868Z,31.10
2022-08-17T04:55:46.883Z,32.00
2022-08-17T04:56:22.112Z,31.50
2022-08-17T04:56:57.313Z,31.20
2022-08-17T04:57:39.324Z,29.60
2022-08-17T04:58:07.749Z,30.80
2022-08-17T04:58:43.095Z,27.70
2022-08-17T04:59:18.203Z,31.40
2022-08-17T04:59:53.432Z,28.40
2022-08-17T05:00:28.875Z,26.10
2022-08-17T05:01:04.258Z,27.30
2022-08-17T05:01:39.709Z,27.10
2022-08-17T05:02:14.907Z,26.20
2022-08-17T05:02:50.591Z,26.10
2022-08-17T05:03:25.462Z,26.90
2022-08-17T05:04:00.897Z,26.90
2022-08-17T05:04:36.101Z,23.90
2022-08-17T05:05:11.530Z,25.10
2022-08-17T05:05:46.925Z,26.20
2022-08-17T05:06:22.448Z,27.20
2022-08-17T05:06:57.727Z,31.60
2022-08-17T05:07:32.962Z,32.10
2022-08-17T05:08:07.982Z,26.10
2022-08-17T05:08:43.230Z,27.40
2022-08-17T05:09:18.252Z,25.10
2022-08-17T05:09:53.567Z,24.60
2022-08-17T05:10:28.756Z,22.40
2022-08-17T05:11:04.104Z,23.80
2022-08-17T05:11:39.208Z,27.60
2022-08-17T05:12:14.250Z,28.40
2022-08-17T05:12:49.706Z,24.90
2022-08-17T05:13:25.045Z,25.10
2022-08-17T05:14:00.456Z,25.90
2022-08-17T05:14:35.553Z,23.40
2022-08-17T05:15:10.783Z,22.80
2022-08-17T05:15:47.806Z,23.70
2022-08-17T05:16:21.561Z,22.20
2022-08-17T05:16:56.600Z,23.40
2022-08-17T05:17:32.013Z,24.20
2022-08-17T05:18:07.337Z,24.10
2022-08-17T05:18:42.981Z,27.70
2022-08-17T05:19:18.608Z,24.70
2022-08-17T05:19:54.107Z,23.40
2022-08-17T05:20:29.332Z,27.60
2022-08-17T05:21:04.789Z,27.00
2022-08-17T05:21:40.011Z,23.20
2022-08-17T05:22:15.148Z,28.10
2022-08-17T05:22:50.890Z,30.10
2022-08-17T05:23:26.074Z,26.00
2022-08-17T05:24:01.399Z,21.50
2022-08-17T05:24:42.756Z,23.00
2022-08-17T05:25:12.025Z,21.10
2022-08-17T05:25:47.574Z,25.60
2022-08-17T05:26:26.225Z,27.40
2022-08-17T05:27:01.378Z,25.50
2022-08-17T05:27:35.429Z,22.20
2022-08-17T05:28:08.510Z,23.80
2022-08-17T05:28:43.526Z,25.30
2022-08-17T05:29:18.743Z,31.90
2022-08-17T05:29:53.974Z,32.00
2022-08-17T05:30:29.493Z,25.50
2022-08-17T05:31:04.622Z,26.00
2022-08-17T05:31:40.261Z,26.70
2022-08-17T05:32:38.735Z,27.20
2022-08-17T05:32:51.028Z,26.00
2022-08-17T05:33:26.127Z,24.30
2022-08-17T05:34:01.233Z,23.20
2022-08-17T05:34:36.659Z,24.00
2022-08-17T05:35:11.973Z,24.10
2022-08-17T05:35:47.200Z,24.40
2022-08-17T05:36:42.111Z,24.60
2022-08-17T05:36:57.722Z,23.80
2022-08-17T05:37:32.760Z,26.60
2022-08-17T05:38:08.171Z,26.50
2022-08-17T05:38:43.409Z,22.50
2022-08-17T05:39:18.449Z,21.40
2022-08-17T05:39:53.834Z,20.30
2022-08-17T05:40:32.822Z,23.70
2022-08-17T05:41:04.752Z,26.90
2022-08-17T05:41:40.184Z,25.80
2022-08-17T05:42:15.397Z,21.30
2022-08-17T05:42:51.045Z,25.80
2022-08-17T05:43:26.134Z,29.30
2022-08-17T05:44:05.549Z,24.40
2022-08-17T05:44:36.469Z,22.90
2022-08-17T05:45:11.593Z,25.60
2022-08-17T05:45:55.957Z,24.90
2022-08-17T05:46:22.353Z,24.70
2022-08-17T05:46:57.800Z,23.80
2022-08-17T05:47:33.017Z,24.00
2022-08-17T05:48:08.447Z,22.70
2022-08-17T05:48:43.670Z,25.30
2022-08-17T05:49:18.754Z,26.00
2022-08-17T05:49:53.977Z,20.80
2022-08-17T05:50:29.943Z,20.20
2022-08-17T05:51:04.408Z,23.20
2022-08-17T05:51:39.711Z,25.10
2022-08-17T05:52:14.855Z,28.20
2022-08-17T05:52:50.556Z,28.20
2022-08-17T05:53:25.588Z,27.90
2022-08-17T05:54:00.994Z,28.70
2022-08-17T05:54:36.508Z,23.50
2022-08-17T05:55:11.825Z,27.70
2022-08-17T05:55:47.151Z,34.80
2022-08-17T05:56:29.898Z,25.60
2022-08-17T05:56:57.454Z,30.00
2022-08-17T05:57:32.757Z,28.90
2022-08-17T05:58:08.286Z,39.60
2022-08-17T05:58:43.587Z,26.30
2022-08-17T05:59:19.304Z,21.80
2022-08-17T05:59:54.817Z,21.70
2022-08-17T06:00:30.826Z,29.30
2022-08-17T06:01:05.298Z,27.70
2022-08-17T06:01:40.830Z,29.40
2022-08-17T06:02:15.915Z,22.40
2022-08-17T06:02:51.470Z,20.00
2022-08-17T06:03:27.015Z,18.70
2022-08-17T06:04:02.151Z,22.50
2022-08-17T06:04:37.181Z,24.10
2022-08-17T06:05:12.602Z,22.20
2022-08-17T06:05:48.093Z,19.90
2022-08-17T06:06:25.202Z,22.80
2022-08-17T06:06:58.644Z,18.60
2022-08-17T06:07:33.879Z,19.40
2022-08-17T06:08:09.105Z,20.80
2022-08-17T06:08:44.322Z,21.50
2022-08-17T06:09:25.760Z,19.00
2022-08-17T06:09:55.097Z,22.00
2022-08-17T06:10:30.200Z,22.60
2022-08-17T06:11:05.729Z,21.60
2022-08-17T06:11:40.832Z,20.50
2022-08-17T06:12:19.802Z,21.10
2022-08-17T06:12:51.586Z,24.10
2022-08-17T06:13:26.544Z,19.20
2022-08-17T06:14:01.966Z,17.20
2022-08-17T06:14:37.385Z,25.60
2022-08-17T06:15:12.727Z,22.40
2022-08-17T06:15:47.940Z,18.40
2022-08-17T06:16:28.239Z,16.20
2022-08-17T06:16:58.013Z,18.70
2022-08-17T06:17:33.122Z,21.50
2022-08-17T06:18:08.197Z,18.10
2022-08-17T06:18:43.408Z,18.50
2022-08-17T06:19:18.647Z,16.30
2022-08-17T06:19:53.842Z,18.70
2022-08-17T06:20:29.068Z,21.40
2022-08-17T06:21:04.501Z,21.30
2022-08-17T06:21:40.040Z,19.80
2022-08-17T06:22:15.244Z,17.70
2022-08-17T06:22:50.720Z,15.90
2022-08-17T06:23:25.776Z,17.10
2022-08-17T06:24:00.898Z,17.50
2022-08-17T06:24:36.003Z,22.10
2022-08-17T06:25:11.135Z,23.10
2022-08-17T06:25:46.760Z,25.10
2022-08-17T06:26:21.997Z,22.70
2022-08-17T06:26:57.189Z,21.00
2022-08-17T06:27:32.320Z,21.20
2022-08-17T06:28:07.759Z,21.80
2022-08-17T06:28:43.207Z,21.90
2022-08-17T06:29:18.572Z,25.60
2022-08-17T06:29:53.357Z,23.30
2022-08-17T06:30:28.589Z,20.90
2022-08-17T06:31:03.906Z,26.00
2022-08-17T06:31:39.307Z,26.50
2022-08-17T06:32:14.739Z,21.70
2022-08-17T06:32:50.115Z,21.30
2022-08-17T06:33:24.968Z,21.60
2022-08-17T06:34:00.291Z,22.80
2022-08-17T06:34:35.593Z,19.70
2022-08-17T06:35:11.024Z,18.40
2022-08-17T06:35:46.234Z,18.40
2022-08-17T06:36:21.459Z,18.80
2022-08-17T06:36:56.631Z,15.00
2022-08-17T06:37:32.297Z,15.90
2022-08-17T06:38:07.755Z,15.20
2022-08-17T06:38:42.874Z,23.00
2022-08-17T06:39:18.332Z,22.90
2022-08-17T06:39:53.609Z,19.90
2022-08-17T06:40:28.963Z,20.30
2022-08-17T06:41:04.194Z,21.80
2022-08-17T06:41:39.906Z,31.40
2022-08-17T06:43:02.269Z,20.40
2022-08-17T06:43:02.437Z,22.10
2022-08-17T06:43:26.074Z,21.20
2022-08-17T06:44:01.779Z,22.10
2022-08-17T06:44:50.213Z,23.10
2022-08-17T06:45:12.250Z,21.40
2022-08-17T06:45:47.673Z,21.90
2022-08-17T06:46:23.007Z,16.50
2022-08-17T06:46:58.114Z,19.10
2022-08-17T06:47:33.282Z,17.80
2022-08-17T06:48:08.189Z,17.80
2022-08-17T06:48:43.331Z,18.90
2022-08-17T06:49:18.851Z,21.00
2022-08-17T06:49:55.555Z,19.90
2022-08-17T06:50:29.784Z,19.30
2022-08-17T06:51:05.093Z,19.40
2022-08-17T06:51:40.299Z,19.90
2022-08-17T06:52:42.303Z,19.40
2022-08-17T06:52:50.914Z,20.20
2022-08-17T06:53:26.338Z,22.30
2022-08-17T06:54:01.660Z,23.20
2022-08-17T06:54:36.880Z,20.40
2022-08-17T06:55:18.165Z,18.00
2022-08-17T06:55:47.434Z,18.00
2022-08-17T06:56:22.889Z,19.50
2022-08-17T06:56:58.187Z,18.40
2022-08-17T06:57:33.419Z,18.30
2022-08-17T06:58:16.132Z,19.50
2022-08-17T06:58:44.040Z,18.10
2022-08-17T06:59:19.260Z,17.30
2022-08-17T06:59:55.176Z,19.70
2022-08-17T07:00:30.159Z,19.90
2022-08-17T07:01:05.327Z,16.20
2022-08-17T07:01:40.733Z,21.20
2022-08-17T07:02:16.221Z,25.40
2022-08-17T07:02:53.137Z,21.10
2022-08-17T07:03:26.874Z,17.10
2022-08-17T07:04:05.074Z,16.70
2022-08-17T07:04:37.419Z,16.60
2022-08-17T07:05:12.633Z,15.60
2022-08-17T07:05:47.894Z,18.40
2022-08-17T07:06:23.324Z,16.50
2022-08-17T07:06:58.436Z,13.90
2022-08-17T07:07:33.786Z,16.60
2022-08-17T07:08:08.891Z,15.00
2022-08-17T07:08:44.100Z,17.40
2022-08-17T07:09:19.145Z,19.60
2022-08-17T07:09:54.350Z,17.90
2022-08-17T07:10:29.585Z,17.60
2022-08-17T07:11:05.425Z,18.60
2022-08-17T07:11:40.550Z,17.80
2022-08-17T07:12:15.676Z,17.30
2022-08-17T07:12:51.089Z,16.80
2022-08-17T07:13:26.237Z,17.10
2022-08-17T07:14:01.372Z,16.30
2022-08-17T07:14:36.719Z,10.30
2022-08-17T07:15:12.189Z,13.60
2022-08-17T07:15:47.701Z,15.00
2022-08-17T07:16:23.168Z,15.80
2022-08-17T07:16:58.274Z,15.50
2022-08-17T07:17:46.620Z,13.00
2022-08-17T07:18:08.949Z,14.70
2022-08-17T07:18:44.259Z,13.60
2022-08-17T07:19:19.282Z,11.70
2022-08-17T07:19:55.551Z,14.10
2022-08-17T07:20:29.751Z,18.60
2022-08-17T07:21:05.153Z,17.10
2022-08-17T07:21:40.584Z,14.70
2022-08-17T07:22:16.081Z,15.20
2022-08-17T07:23:00.239Z,17.10
2022-08-17T07:23:26.830Z,19.40
2022-08-17T07:24:02.145Z,16.30
2022-08-17T07:24:37.400Z,22.20
2022-08-17T07:25:12.517Z,22.80
2022-08-17T07:25:47.761Z,13.80
2022-08-17T07:26:22.876Z,12.40
2022-08-17T07:26:58.009Z,13.80
2022-08-17T07:27:33.214Z,21.50
2022-08-17T07:28:08.454Z,19.60
2022-08-17T07:28:43.561Z,17.00
2022-08-17T07:29:18.671Z,12.70
2022-08-17T07:29:53.898Z,12.40
2022-08-17T07:30:29.102Z,12.70
2022-08-17T07:31:04.678Z,12.30
2022-08-17T07:31:39.966Z,13.30
2022-08-17T07:32:15.096Z,11.40
2022-08-17T07:32:50.719Z,11.10
2022-08-17T07:33:25.745Z,10.60
2022-08-17T07:34:01.060Z,10.10
2022-08-17T07:34:36.466Z,11.80